ACA1259 CYHZ-KMCO
Flight info
| Callsign | ACA1259 |
|---|---|
| Flight time | N/A |
| Altitude | 32000 |
| Route | ACADN DCT DUVIN DCT BUZRD Q167 ALBOW/N0463F340 Q167 RIFLE DCT HEADI Q97 SAWED DCT MOXXY Q85 LPERD SNFLD3 |
| Aircraft | B738/M-SDE2E3FGHIRWXY/LB1 |
Departure
| Time | N/A |
|---|---|
| Airport | Halifax / Stanfield International Airport (CYHZ) |
Arrival
| Time | 2026-05-05 19:17 |
|---|---|
| Airport | Orlando International Airport (KMCO) |
| Time | Latitude | Longitude | Altitude | Speed | Heading |
|---|---|---|---|---|---|
| 2026-05-05 18:31 | 32.64528 | -80.32293 | 34128 ft | 480 kts | 225° |
| 2026-05-05 18:31 | 32.61766 | -80.34512 | 34129 ft | 480 kts | 225° |
| 2026-05-05 18:32 | 32.56199 | -80.38910 | 34126 ft | 484 kts | 223° |
| 2026-05-05 18:32 | 32.50344 | -80.42923 | 34130 ft | 487 kts | 220° |
| 2026-05-05 18:33 | 32.44447 | -80.46781 | 34128 ft | 488 kts | 220° |
| 2026-05-05 18:33 | 32.38529 | -80.50706 | 34139 ft | 488 kts | 220° |
| 2026-05-05 18:34 | 32.32627 | -80.54670 | 34140 ft | 487 kts | 220° |
| 2026-05-05 18:34 | 32.26732 | -80.58637 | 34136 ft | 488 kts | 220° |
| 2026-05-05 18:35 | 32.20831 | -80.62598 | 34151 ft | 487 kts | 220° |
| 2026-05-05 18:35 | 32.14966 | -80.66525 | 34147 ft | 488 kts | 220° |
| 2026-05-05 18:36 | 32.09061 | -80.70474 | 34144 ft | 488 kts | 220° |
| 2026-05-05 18:36 | 32.03163 | -80.74414 | 34143 ft | 487 kts | 220° |
| 2026-05-05 18:37 | 31.97273 | -80.78342 | 34138 ft | 486 kts | 221° |
| 2026-05-05 18:37 | 31.91390 | -80.82261 | 34122 ft | 485 kts | 221° |
| 2026-05-05 18:38 | 31.85555 | -80.86142 | 34114 ft | 484 kts | 221° |
| 2026-05-05 18:38 | 31.79692 | -80.90035 | 34107 ft | 483 kts | 221° |
| 2026-05-05 18:39 | 31.73842 | -80.93915 | 34104 ft | 482 kts | 221° |
| 2026-05-05 18:39 | 31.68006 | -80.97779 | 34099 ft | 481 kts | 221° |
| 2026-05-05 18:40 | 31.62182 | -81.01632 | 34102 ft | 480 kts | 221° |
| 2026-05-05 18:40 | 31.56396 | -81.05418 | 34105 ft | 481 kts | 220° |
| 2026-05-05 18:41 | 31.50448 | -81.09043 | 34114 ft | 482 kts | 218° |
| 2026-05-05 18:41 | 31.44493 | -81.12644 | 34109 ft | 480 kts | 219° |
| 2026-05-05 18:42 | 31.38573 | -81.16269 | 34113 ft | 480 kts | 219° |
| 2026-05-05 18:42 | 31.33631 | -81.19240 | 34097 ft | 481 kts | 218° |
| 2026-05-05 18:43 | 31.26685 | -81.23332 | 34103 ft | 481 kts | 218° |
| 2026-05-05 18:43 | 31.20640 | -81.26745 | 34087 ft | 493 kts | 211° |
| 2026-05-05 18:44 | 31.14963 | -81.28263 | 34111 ft | 514 kts | 196° |
| 2026-05-05 18:44 | 31.11350 | -81.28451 | 34107 ft | 525 kts | 188° |
| 2026-05-05 18:44 | 31.07701 | -81.28391 | 34107 ft | 525 kts | 188° |
| 2026-05-05 18:45 | 30.99216 | -81.28242 | 34101 ft | 524 kts | 188° |
| 2026-05-05 18:45 | 30.91940 | -81.28193 | 34101 ft | 523 kts | 188° |
| 2026-05-05 18:46 | 30.85896 | -81.28178 | 34108 ft | 522 kts | 188° |
| 2026-05-05 18:46 | 30.78624 | -81.28160 | 34112 ft | 522 kts | 188° |
| 2026-05-05 18:47 | 30.71359 | -81.28137 | 34111 ft | 522 kts | 188° |
| 2026-05-05 18:47 | 30.64090 | -81.28112 | 34119 ft | 522 kts | 188° |
| 2026-05-05 18:48 | 30.56863 | -81.27958 | 34118 ft | 525 kts | 185° |
| 2026-05-05 18:48 | 30.49557 | -81.27399 | 34120 ft | 527 kts | 184° |
| 2026-05-05 18:49 | 30.42248 | -81.26769 | 34120 ft | 526 kts | 184° |
| 2026-05-05 18:49 | 30.34953 | -81.26189 | 34119 ft | 525 kts | 184° |
| 2026-05-05 18:50 | 30.27724 | -81.25649 | 34120 ft | 524 kts | 185° |
| 2026-05-05 18:50 | 30.20445 | -81.25112 | 34030 ft | 525 kts | 185° |
| 2026-05-05 18:51 | 30.16786 | -81.24843 | 33762 ft | 527 kts | 184° |
| 2026-05-05 18:51 | 30.13134 | -81.24570 | 33510 ft | 524 kts | 184° |
| 2026-05-05 18:51 | 30.09501 | -81.24297 | 33269 ft | 523 kts | 184° |
| 2026-05-05 18:51 | 30.05869 | -81.24026 | 33024 ft | 523 kts | 184° |
| 2026-05-05 18:52 | 30.02236 | -81.23756 | 32778 ft | 523 kts | 184° |
| 2026-05-05 18:52 | 29.98654 | -81.23490 | 32537 ft | 523 kts | 184° |
| 2026-05-05 18:52 | 29.95026 | -81.23221 | 32293 ft | 523 kts | 183° |
| 2026-05-05 18:52 | 29.91399 | -81.22952 | 32046 ft | 522 kts | 183° |
| 2026-05-05 18:53 | 29.87771 | -81.22683 | 31788 ft | 521 kts | 183° |
| 2026-05-05 18:53 | 29.84153 | -81.22414 | 31013 ft | 522 kts | 183° |
| 2026-05-05 18:53 | 29.80533 | -81.22146 | 30282 ft | 521 kts | 182° |
| 2026-05-05 18:53 | 29.76913 | -81.21879 | 29490 ft | 521 kts | 182° |
| 2026-05-05 18:54 | 29.73293 | -81.21611 | 28633 ft | 522 kts | 182° |
| 2026-05-05 18:54 | 29.69670 | -81.21341 | 27736 ft | 522 kts | 181° |
| 2026-05-05 18:54 | 29.66044 | -81.21046 | 26803 ft | 523 kts | 181° |
| 2026-05-05 18:54 | 29.62463 | -81.20736 | 25826 ft | 523 kts | 181° |
| 2026-05-05 18:55 | 29.58843 | -81.20415 | 25073 ft | 518 kts | 181° |
| 2026-05-05 18:55 | 29.55281 | -81.20097 | 24374 ft | 511 kts | 181° |
| 2026-05-05 18:55 | 29.51757 | -81.19788 | 23776 ft | 503 kts | 181° |
| 2026-05-05 18:55 | 29.48311 | -81.19488 | 22969 ft | 494 kts | 181° |
| 2026-05-05 18:56 | 29.44924 | -81.19198 | 22293 ft | 482 kts | 181° |
| 2026-05-05 18:56 | 29.41594 | -81.18915 | 21613 ft | 477 kts | 181° |
| 2026-05-05 18:56 | 29.38303 | -81.18638 | 20938 ft | 472 kts | 180° |
| 2026-05-05 18:56 | 29.35047 | -81.18363 | 20266 ft | 467 kts | 180° |
| 2026-05-05 18:57 | 29.31869 | -81.18093 | 19608 ft | 461 kts | 180° |
| 2026-05-05 18:57 | 29.28684 | -81.17821 | 18946 ft | 456 kts | 180° |
| 2026-05-05 18:57 | 29.25540 | -81.17545 | 18288 ft | 451 kts | 179° |
| 2026-05-05 18:57 | 29.22423 | -81.17268 | 17590 ft | 447 kts | 179° |
| 2026-05-05 18:58 | 29.19346 | -81.16896 | 16931 ft | 444 kts | 173° |
| 2026-05-05 18:58 | 29.16359 | -81.16030 | 16265 ft | 443 kts | 163° |
| 2026-05-05 18:58 | 29.13509 | -81.14738 | 15643 ft | 438 kts | 160° |
| 2026-05-05 18:58 | 29.10698 | -81.13442 | 15003 ft | 433 kts | 161° |
| 2026-05-05 18:59 | 29.07925 | -81.12209 | 14692 ft | 420 kts | 161° |
| 2026-05-05 18:59 | 29.05274 | -81.11088 | 14481 ft | 405 kts | 163° |
| 2026-05-05 18:59 | 29.02645 | -81.10097 | 14223 ft | 393 kts | 165° |
| 2026-05-05 18:59 | 29.00077 | -81.09151 | 13965 ft | 382 kts | 165° |
| 2026-05-05 19:00 | 28.97572 | -81.08230 | 13703 ft | 372 kts | 167° |
| 2026-05-05 19:00 | 28.95083 | -81.07702 | 13435 ft | 358 kts | 176° |
| 2026-05-05 19:00 | 28.92642 | -81.07461 | 13081 ft | 348 kts | 179° |
| 2026-05-05 19:00 | 28.90253 | -81.07250 | 12700 ft | 342 kts | 180° |
| 2026-05-05 19:01 | 28.87902 | -81.07372 | 12320 ft | 335 kts | 192° |
| 2026-05-05 19:01 | 28.85678 | -81.08034 | 11978 ft | 328 kts | 202° |
| 2026-05-05 19:01 | 28.83578 | -81.08920 | 11608 ft | 325 kts | 202° |
| 2026-05-05 19:01 | 28.81468 | -81.09828 | 11221 ft | 323 kts | 202° |
| 2026-05-05 19:02 | 28.79371 | -81.10723 | 10849 ft | 321 kts | 202° |
| 2026-05-05 19:02 | 28.77298 | -81.11597 | 10609 ft | 313 kts | 201° |
| 2026-05-05 19:02 | 28.75280 | -81.12440 | 10454 ft | 304 kts | 201° |
| 2026-05-05 19:02 | 28.73321 | -81.13254 | 10318 ft | 296 kts | 201° |
| 2026-05-05 19:03 | 28.71417 | -81.14044 | 10202 ft | 286 kts | 201° |
| 2026-05-05 19:03 | 28.69556 | -81.14745 | 10073 ft | 278 kts | 196° |
| 2026-05-05 19:03 | 28.67695 | -81.15246 | 9918 ft | 272 kts | 193° |
| 2026-05-05 19:03 | 28.65873 | -81.15692 | 9649 ft | 270 kts | 193° |
| 2026-05-05 19:04 | 28.64043 | -81.16141 | 9404 ft | 268 kts | 193° |
| 2026-05-05 19:04 | 28.62230 | -81.16595 | 9121 ft | 267 kts | 193° |
| 2026-05-05 19:04 | 28.60419 | -81.17058 | 8815 ft | 266 kts | 193° |
| 2026-05-05 19:04 | 28.58618 | -81.17524 | 8578 ft | 264 kts | 193° |
| 2026-05-05 19:05 | 28.56847 | -81.17984 | 8491 ft | 260 kts | 193° |
| 2026-05-05 19:05 | 28.55081 | -81.18443 | 8368 ft | 260 kts | 193° |
| 2026-05-05 19:05 | 28.53280 | -81.18744 | 8113 ft | 266 kts | 182° |
| 2026-05-05 19:05 | 28.51424 | -81.18751 | 7862 ft | 266 kts | 179° |
| 2026-05-05 19:06 | 28.49580 | -81.18717 | 7611 ft | 263 kts | 180° |
| 2026-05-05 19:06 | 28.47797 | -81.18702 | 7357 ft | 256 kts | 180° |
| 2026-05-05 19:06 | 28.46039 | -81.18704 | 7047 ft | 250 kts | 180° |
| 2026-05-05 19:06 | 28.44325 | -81.18714 | 6780 ft | 242 kts | 180° |
| 2026-05-05 19:07 | 28.42662 | -81.18725 | 6536 ft | 235 kts | 180° |
| 2026-05-05 19:07 | 28.41044 | -81.18736 | 6289 ft | 230 kts | 180° |
| 2026-05-05 19:07 | 28.39452 | -81.18748 | 6040 ft | 228 kts | 180° |
| 2026-05-05 19:07 | 28.37868 | -81.18760 | 5810 ft | 227 kts | 180° |
| 2026-05-05 19:08 | 28.36311 | -81.18770 | 5627 ft | 223 kts | 180° |
| 2026-05-05 19:08 | 28.34774 | -81.18782 | 5524 ft | 221 kts | 180° |
| 2026-05-05 19:08 | 28.33206 | -81.18793 | 5291 ft | 229 kts | 180° |
| 2026-05-05 19:08 | 28.31605 | -81.18807 | 5084 ft | 231 kts | 180° |
| 2026-05-05 19:09 | 28.30012 | -81.18856 | 5028 ft | 229 kts | 182° |
| 2026-05-05 19:09 | 28.28422 | -81.18956 | 4996 ft | 227 kts | 182° |
| 2026-05-05 19:09 | 28.26869 | -81.19049 | 4971 ft | 221 kts | 182° |
| 2026-05-05 19:09 | 28.25351 | -81.19142 | 4992 ft | 216 kts | 182° |
| 2026-05-05 19:10 | 28.23856 | -81.19233 | 4997 ft | 215 kts | 182° |
| 2026-05-05 19:10 | 28.22319 | -81.19325 | 4675 ft | 220 kts | 182° |
| 2026-05-05 19:10 | 28.20797 | -81.19418 | 4531 ft | 218 kts | 182° |
| 2026-05-05 19:10 | 28.19330 | -81.19530 | 4479 ft | 210 kts | 188° |
| 2026-05-05 19:11 | 28.18058 | -81.20244 | 4401 ft | 205 kts | 225° |
| 2026-05-05 19:11 | 28.17416 | -81.21667 | 4345 ft | 208 kts | 262° |
| 2026-05-05 19:11 | 28.17401 | -81.23330 | 4287 ft | 215 kts | 272° |
| 2026-05-05 19:11 | 28.17478 | -81.25036 | 4187 ft | 216 kts | 273° |
| 2026-05-05 19:12 | 28.17867 | -81.26642 | 4110 ft | 211 kts | 304° |
| 2026-05-05 19:12 | 28.18980 | -81.27613 | 4056 ft | 204 kts | 348° |
| 2026-05-05 19:12 | 28.20386 | -81.27838 | 4040 ft | 206 kts | 355° |
| 2026-05-05 19:12 | 28.21819 | -81.27984 | 3878 ft | 212 kts | 359° |
| 2026-05-05 19:13 | 28.23266 | -81.28040 | 3680 ft | 206 kts | 1° |
| 2026-05-05 19:13 | 28.24667 | -81.28060 | 3431 ft | 196 kts | 1° |
| 2026-05-05 19:13 | 28.26007 | -81.28072 | 3176 ft | 188 kts | 2° |
| 2026-05-05 19:13 | 28.27280 | -81.28084 | 2925 ft | 178 kts | 2° |
| 2026-05-05 19:14 | 28.28515 | -81.28096 | 2701 ft | 179 kts | 2° |
| 2026-05-05 19:14 | 28.29777 | -81.28109 | 2469 ft | 183 kts | 2° |
| 2026-05-05 19:14 | 28.31042 | -81.28121 | 2217 ft | 182 kts | 2° |
| 2026-05-05 19:14 | 28.32305 | -81.28136 | 1976 ft | 178 kts | 2° |
| 2026-05-05 19:15 | 28.33499 | -81.28148 | 1780 ft | 166 kts | 3° |
| 2026-05-05 19:15 | 28.34617 | -81.28159 | 1531 ft | 160 kts | 3° |
| 2026-05-05 19:15 | 28.35726 | -81.28169 | 1325 ft | 160 kts | 3° |
| 2026-05-05 19:15 | 28.36850 | -81.28180 | 1109 ft | 162 kts | 2° |
| 2026-05-05 19:16 | 28.37980 | -81.28193 | 896 ft | 162 kts | 2° |
| 2026-05-05 19:16 | 28.39096 | -81.28203 | 675 ft | 159 kts | 2° |
| 2026-05-05 19:16 | 28.40197 | -81.28212 | 461 ft | 158 kts | 2° |
| 2026-05-05 19:16 | 28.41299 | -81.28220 | 243 ft | 158 kts | 0° |
| 2026-05-05 19:17 | 28.42382 | -81.28230 | 112 ft | 150 kts | 0° |
| 2026-05-05 19:17 | 28.43305 | -81.28242 | 100 ft | 105 kts | 358° |
| 2026-05-05 19:17 | 28.43666 | -81.28251 | 104 ft | 20 kts | 360° |
| 2026-05-05 19:17 | 28.43786 | -81.28270 | 106 ft | 15 kts | 339° |
| 2026-05-05 19:18 | 28.43862 | -81.28340 | 106 ft | 14 kts | 301° |
| 2026-05-05 19:18 | 28.43877 | -81.28441 | 106 ft | 13 kts | 268° |
| 2026-05-05 19:18 | 28.43874 | -81.28542 | 105 ft | 13 kts | 268° |
| 2026-05-05 19:18 | 28.43874 | -81.28642 | 106 ft | 12 kts | 269° |
| 2026-05-05 19:19 | 28.43873 | -81.28740 | 106 ft | 12 kts | 270° |
| 2026-05-05 19:19 | 28.43873 | -81.28833 | 106 ft | 12 kts | 269° |
| 2026-05-05 19:19 | 28.43872 | -81.28926 | 106 ft | 12 kts | 269° |
| 2026-05-05 19:19 | 28.43871 | -81.29016 | 106 ft | 11 kts | 269° |
| 2026-05-05 19:20 | 28.43870 | -81.29116 | 99 ft | 13 kts | 270° |
| 2026-05-05 19:20 | 28.43870 | -81.29195 | 99 ft | 10 kts | 269° |
| 2026-05-05 19:20 | 28.43838 | -81.29257 | 99 ft | 10 kts | 206° |
| 2026-05-05 19:20 | 28.43765 | -81.29264 | 100 ft | 11 kts | 179° |
| 2026-05-05 19:21 | 28.43678 | -81.29263 | 101 ft | 13 kts | 179° |
| 2026-05-05 19:21 | 28.43579 | -81.29271 | 102 ft | 15 kts | 206° |
| 2026-05-05 19:21 | 28.43551 | -81.29374 | 105 ft | 14 kts | 267° |
| 2026-05-05 19:21 | 28.43552 | -81.29482 | 105 ft | 13 kts | 270° |
| 2026-05-05 19:22 | 28.43552 | -81.29588 | 103 ft | 14 kts | 270° |
| 2026-05-05 19:22 | 28.43540 | -81.29690 | 102 ft | 13 kts | 236° |
| 2026-05-05 19:22 | 28.43457 | -81.29711 | 103 ft | 13 kts | 176° |
| 2026-05-05 19:22 | 28.43372 | -81.29723 | 105 ft | 12 kts | 210° |
| 2026-05-05 19:23 | 28.43314 | -81.29794 | 103 ft | 13 kts | 205° |
| 2026-05-05 19:23 | 28.43227 | -81.29804 | 102 ft | 12 kts | 180° |
| 2026-05-05 19:23 | 28.43142 | -81.29802 | 102 ft | 12 kts | 180° |
| 2026-05-05 19:23 | 28.43060 | -81.29801 | 102 ft | 12 kts | 179° |
| 2026-05-05 19:24 | 28.42976 | -81.29799 | 102 ft | 13 kts | 179° |
| 2026-05-05 19:24 | 28.42877 | -81.29798 | 102 ft | 15 kts | 179° |
| 2026-05-05 19:24 | 28.42762 | -81.29798 | 102 ft | 18 kts | 179° |
| 2026-05-05 19:24 | 28.42633 | -81.29797 | 102 ft | 19 kts | 180° |
| 2026-05-05 19:25 | 28.42511 | -81.29795 | 102 ft | 15 kts | 179° |
| 2026-05-05 19:25 | 28.42413 | -81.29800 | 101 ft | 14 kts | 198° |
| 2026-05-05 19:25 | 28.42363 | -81.29881 | 102 ft | 13 kts | 264° |
| 2026-05-05 19:25 | 28.42362 | -81.29982 | 102 ft | 13 kts | 269° |
| 2026-05-05 19:26 | 28.42361 | -81.30080 | 103 ft | 12 kts | 269° |
| 2026-05-05 19:26 | 28.42360 | -81.30176 | 102 ft | 12 kts | 269° |
| 2026-05-05 19:26 | 28.42359 | -81.30270 | 100 ft | 12 kts | 269° |
| 2026-05-05 19:26 | 28.42361 | -81.30361 | 99 ft | 11 kts | 288° |
| 2026-05-05 19:27 | 28.42426 | -81.30401 | 98 ft | 11 kts | 359° |
| 2026-05-05 19:27 | 28.42502 | -81.30401 | 99 ft | 11 kts | 359° |
| 2026-05-05 19:27 | 28.42567 | -81.30406 | 99 ft | 7 kts | 348° |
| 2026-05-05 19:27 | 28.42583 | -81.30410 | 100 ft | 1 kts | 351° |
| 2026-05-05 19:28 | 28.42599 | -81.30408 | 101 ft | 4 kts | 16° |
| 2026-05-05 19:28 | 28.42622 | -81.30392 | 102 ft | 5 kts | 32° |
| 2026-05-05 19:28 | 28.42643 | -81.30377 | 101 ft | 3 kts | 35° |
| 2026-05-05 19:28 | 28.42659 | -81.30362 | 101 ft | 2 kts | 37° |
| 2026-05-05 19:29 | 28.42669 | -81.30354 | 101 ft | 1 kts | 37° |
| 2026-05-05 19:29 | 28.42670 | -81.30353 | 102 ft | 0 kts | 37° |